Prairie Du Chien, WI

1:27 PM CDT on July 23, 2014 (GMT -0500)
Prairie du Chien (KWIPRAIR6) Elev 681 ft | 43.04 °N, 91.14 °W | Change Station

Current weather conditions updated 8 seconds ago

Mostly Cloudy
Mostly Cloudy
79.9 °F
Feels Like 81 °F
N
0.6
Wind Variable Wind from SSE
Gusts 3.8 mph

Today is forecast to be Much Cooler than yesterday.

Today
High -- | Low -- °F
--% Chance of Precip.
Yesterday
High -- | Low -- °F
Precip. -- in
5:46 AM 8:35 PM
Waning Crescent, 9% visible
Pressure 30.21 in
Visibility 10.0 miles
Clouds Scattered Clouds 4900 ft
Mostly Cloudy 6000 ft
Heat Index 81 °F
Dew Point 60 °F
Humidity 51%
Rainfall 0.00 in
Snow Depth Not available.
UV 0.0 out of 12
Pollen 6.40 out of 12
Air Quality Not available.
Flu Activity Not available.
METAR KPDC 231817Z AUTO 01003KT 10SM SCT049 BKN060 25/10 A3021 RMK AO2

More Conditions Fewer Conditions

Pressure 30.21 in
Visibility 10.0 miles
Clouds Scattered Clouds 4900 ft
Mostly Cloudy 6000 ft
Heat Index 81 °F
Dew Point 60 °F
Humidity 51%
Rainfall 0.00 in
Snow Depth Not available.
UV 0.0 out of 12
Pollen 6.40 out of 12
Air Quality Not available.
Flu Activity Not available.
METAR KPDC 231817Z AUTO 01003KT 10SM SCT049 BKN060 25/10 A3021 RMK AO2

More Conditions Fewer Conditions

10-Day Weather Forecast

Almanac

Astronomy

Jul. 23, 2014 Rise Set
Actual Time 5:46 AM CDT 8:35 PM CDT
Civil Twilight 5:12 AM CDT 9:08 PM CDT
Nautical Twilight 4:30 AM CDT 9:50 PM CDT
Astronomical Twilight 3:41 AM CDT 10:38 PM CDT
Moon 3:05 AM CDT 6:03 PM CDT
Length of Visible Light 15h 55m
Length of Day
14h 49m
Tomorrow will be 1m 56s shorter.
Waning Crescent, 9% of the Moon is Illuminated
Today
Waning Crescent
Jul 26
New
Aug 3
First Quarter
Aug 10
Full
Aug 17
Last Quarter

Today's Extremes

State Highs State Lows

Community

WunderPhotos

Upload Photos

1,736,700 photos uploaded!

Nearby

Snow Depth

Station Depth Elevation
No new snow has been reported.

Earthquake Activity

City Distance Mag. Time & Date
No recent earthquake activity has been reported nearby.
Minimum magnitude displayed is 2.5.

Coastal Water Temperatures

Place Temperature
No Stations Reporting

Nearby Weather Stations

Station Location Temp. Heat Index Dew Point Humidity Wind Precip. Elev Updated Type
Prairie du Chien, Prairie Du Chien, WI 79.9 °F 81 °F 60 °F 51% SSE  at  0.6 mph 0.00 in / hr 681 ft 1:27 PM CDT Rapid Fire
Paint Creek Township, Waterville, IA 76.5 °F 78 °F 60 °F 57% SSE  at  0.0 mph 0.00 in / hr 951 ft 1:20 PM CDT Normal
Monona, IA 75.4 °F 78 °F 58 °F 54% NE  at  4.0 mph 0.00 in / hr 1214 ft 1:23 PM CDT Normal
Postville, IA 75.2 °F 78 °F 57 °F 53% ENE  at  8.0 mph 0.00 in / hr 1181 ft 1:23 PM CDT Normal
RAWS BOSCOBEL WI, Boscobel, WI 75 °F 78 °F 56 °F 52% North  at  3 mph 0.00 in / hr 672 ft 12:03 PM CDT MADIS

Show More Stations Show Fewer Stations